sensor_id;sensor_type;location;lat;lon;timestamp;temperature;humidity
53053;DHT22;38934;52.690;6.184;2022-08-19T00:01:19;17.00;99.90
53053;DHT22;38934;52.690;6.184;2022-08-19T00:03:45;17.00;99.90
53053;DHT22;38934;52.690;6.184;2022-08-19T00:06:11;17.00;99.90
53053;DHT22;38934;52.690;6.184;2022-08-19T00:08:36;17.00;99.90
53053;DHT22;38934;52.690;6.184;2022-08-19T00:11:02;17.00;99.90
53053;DHT22;38934;52.690;6.184;2022-08-19T00:13:28;17.00;99.90
53053;DHT22;38934;52.690;6.184;2022-08-19T00:15:55;17.00;99.90
53053;DHT22;38934;52.690;6.184;2022-08-19T00:18:20;17.00;99.90
53053;DHT22;38934;52.690;6.184;2022-08-19T00:20:46;16.90;99.90
53053;DHT22;38934;52.690;6.184;2022-08-19T00:23:12;16.90;99.90
53053;DHT22;38934;52.690;6.184;2022-08-19T00:25:37;16.90;99.90
53053;DHT22;38934;52.690;6.184;2022-08-19T00:28:03;16.80;99.90
53053;DHT22;38934;52.690;6.184;2022-08-19T00:30:29;16.80;99.90
53053;DHT22;38934;52.690;6.184;2022-08-19T00:32:56;16.80;99.90
53053;DHT22;38934;52.690;6.184;2022-08-19T00:35:21;16.80;99.90
53053;DHT22;38934;52.690;6.184;2022-08-19T00:37:48;16.80;99.90
53053;DHT22;38934;52.690;6.184;2022-08-19T00:40:15;16.70;99.90
53053;DHT22;38934;52.690;6.184;2022-08-19T00:42:41;16.70;99.90
53053;DHT22;38934;52.690;6.184;2022-08-19T00:45:16;16.70;99.90
53053;DHT22;38934;52.690;6.184;2022-08-19T00:47:43;16.70;99.90
53053;DHT22;38934;52.690;6.184;2022-08-19T00:50:11;16.70;99.90
53053;DHT22;38934;52.690;6.184;2022-08-19T00:52:43;16.70;99.90
53053;DHT22;38934;52.690;6.184;2022-08-19T00:55:13;16.80;99.90
53053;DHT22;38934;52.690;6.184;2022-08-19T00:57:44;16.60;99.90
53053;DHT22;38934;52.690;6.184;2022-08-19T01:00:14;16.60;99.90
53053;DHT22;38934;52.690;6.184;2022-08-19T01:02:42;16.60;99.90
53053;DHT22;38934;52.690;6.184;2022-08-19T01:05:19;16.60;99.90
53053;DHT22;38934;52.690;6.184;2022-08-19T01:07:47;16.50;99.90
53053;DHT22;38934;52.690;6.184;2022-08-19T01:10:17;16.50;99.90
53053;DHT22;38934;52.690;6.184;2022-08-19T01:12:45;16.50;99.90
53053;DHT22;38934;52.690;6.184;2022-08-19T01:15:12;16.50;99.90
53053;DHT22;38934;52.690;6.184;2022-08-19T01:17:40;16.50;99.90
53053;DHT22;38934;52.690;6.184;2022-08-19T01:20:10;16.50;99.90
53053;DHT22;38934;52.690;6.184;2022-08-19T01:22:45;16.40;99.90
53053;DHT22;38934;52.690;6.184;2022-08-19T01:25:15;16.40;99.90
53053;DHT22;38934;52.690;6.184;2022-08-19T01:27:45;16.40;99.90
53053;DHT22;38934;52.690;6.184;2022-08-19T01:30:34;16.40;99.90
53053;DHT22;38934;52.690;6.184;2022-08-19T01:33:00;16.30;99.90
53053;DHT22;38934;52.690;6.184;2022-08-19T01:35:27;16.30;99.90
53053;DHT22;38934;52.690;6.184;2022-08-19T01:37:57;16.30;99.90
53053;DHT22;38934;52.690;6.184;2022-08-19T01:40:27;16.30;99.90
53053;DHT22;38934;52.690;6.184;2022-08-19T01:42:54;16.20;99.90
53053;DHT22;38934;52.690;6.184;2022-08-19T01:45:22;16.20;99.90
53053;DHT22;38934;52.690;6.184;2022-08-19T01:47:48;16.20;99.90
53053;DHT22;38934;52.690;6.184;2022-08-19T01:50:14;16.10;99.90
53053;DHT22;38934;52.690;6.184;2022-08-19T01:52:41;16.10;99.90
53053;DHT22;38934;52.690;6.184;2022-08-19T01:55:11;16.10;99.90
53053;DHT22;38934;52.690;6.184;2022-08-19T01:57:38;16.10;99.90
53053;DHT22;38934;52.690;6.184;2022-08-19T02:00:07;16.10;99.90
53053;DHT22;38934;52.690;6.184;2022-08-19T02:02:33;16.10;99.90
53053;DHT22;38934;52.690;6.184;2022-08-19T02:04:59;16.10;99.90
53053;DHT22;38934;52.690;6.184;2022-08-19T02:07:24;16.10;99.90
53053;DHT22;38934;52.690;6.184;2022-08-19T02:09:50;16.20;99.90
53053;DHT22;38934;52.690;6.184;2022-08-19T02:12:16;16.00;99.90
53053;DHT22;38934;52.690;6.184;2022-08-19T02:14:42;16.00;99.90
53053;DHT22;38934;52.690;6.184;2022-08-19T02:17:08;16.00;99.90
53053;DHT22;38934;52.690;6.184;2022-08-19T02:19:33;16.00;99.90
53053;DHT22;38934;52.690;6.184;2022-08-19T02:22:00;16.00;99.90
53053;DHT22;38934;52.690;6.184;2022-08-19T02:24:26;16.00;99.90
53053;DHT22;38934;52.690;6.184;2022-08-19T02:26:53;16.00;99.90
53053;DHT22;38934;52.690;6.184;2022-08-19T02:29:19;15.90;99.90
53053;DHT22;38934;52.690;6.184;2022-08-19T02:31:44;15.90;99.90
53053;DHT22;38934;52.690;6.184;2022-08-19T02:34:10;15.90;99.90
53053;DHT22;38934;52.690;6.184;2022-08-19T02:36:36;15.90;99.90
53053;DHT22;38934;52.690;6.184;2022-08-19T02:39:02;15.90;99.90
53053;DHT22;38934;52.690;6.184;2022-08-19T02:41:31;15.80;99.90
53053;DHT22;38934;52.690;6.184;2022-08-19T02:43:59;15.80;99.90
53053;DHT22;38934;52.690;6.184;2022-08-19T02:46:28;15.80;99.90
53053;DHT22;38934;52.690;6.184;2022-08-19T02:49:00;15.80;99.90
53053;DHT22;38934;52.690;6.184;2022-08-19T02:51:37;15.80;99.90
53053;DHT22;38934;52.690;6.184;2022-08-19T02:54:04;15.80;99.90
53053;DHT22;38934;52.690;6.184;2022-08-19T02:56:31;15.80;99.90
53053;DHT22;38934;52.690;6.184;2022-08-19T02:58:57;15.80;99.90
53053;DHT22;38934;52.690;6.184;2022-08-19T03:01:23;15.70;99.90
53053;DHT22;38934;52.690;6.184;2022-08-19T03:03:49;15.80;99.90
53053;DHT22;38934;52.690;6.184;2022-08-19T03:06:16;15.70;99.90
53053;DHT22;38934;52.690;6.184;2022-08-19T03:08:43;15.70;99.90
53053;DHT22;38934;52.690;6.184;2022-08-19T03:11:21;15.70;99.90
53053;DHT22;38934;52.690;6.184;2022-08-19T03:13:48;15.60;99.90
53053;DHT22;38934;52.690;6.184;2022-08-19T03:16:17;15.60;99.90
53053;DHT22;38934;52.690;6.184;2022-08-19T03:18:43;15.60;99.90
53053;DHT22;38934;52.690;6.184;2022-08-19T03:21:10;15.50;99.90
53053;DHT22;38934;52.690;6.184;2022-08-19T03:23:39;15.50;99.90
53053;DHT22;38934;52.690;6.184;2022-08-19T03:26:05;15.50;99.90
53053;DHT22;38934;52.690;6.184;2022-08-19T03:28:33;15.50;99.90
53053;DHT22;38934;52.690;6.184;2022-08-19T03:31:06;15.50;99.90
53053;DHT22;38934;52.690;6.184;2022-08-19T03:33:33;15.30;99.90
53053;DHT22;38934;52.690;6.184;2022-08-19T03:36:01;15.50;99.90
53053;DHT22;38934;52.690;6.184;2022-08-19T03:38:27;15.60;99.90
53053;DHT22;38934;52.690;6.184;2022-08-19T03:40:52;15.50;99.90
53053;DHT22;38934;52.690;6.184;2022-08-19T03:43:18;15.50;99.90
53053;DHT22;38934;52.690;6.184;2022-08-19T03:45:44;15.50;99.90
53053;DHT22;38934;52.690;6.184;2022-08-19T03:48:09;15.50;99.90
53053;DHT22;38934;52.690;6.184;2022-08-19T03:50:39;15.50;99.90
53053;DHT22;38934;52.690;6.184;2022-08-19T03:53:05;15.50;99.90
53053;DHT22;38934;52.690;6.184;2022-08-19T03:55:32;15.50;99.90
53053;DHT22;38934;52.690;6.184;2022-08-19T03:57:58;15.40;99.90
53053;DHT22;38934;52.690;6.184;2022-08-19T04:00:23;15.40;99.90
53053;DHT22;38934;52.690;6.184;2022-08-19T04:02:49;15.40;99.90
53053;DHT22;38934;52.690;6.184;2022-08-19T04:05:15;15.40;99.90
53053;DHT22;38934;52.690;6.184;2022-08-19T04:07:40;15.40;99.90
53053;DHT22;38934;52.690;6.184;2022-08-19T04:10:06;15.40;99.90
53053;DHT22;38934;52.690;6.184;2022-08-19T04:12:32;15.20;99.90
53053;DHT22;38934;52.690;6.184;2022-08-19T04:14:57;15.30;99.90
53053;DHT22;38934;52.690;6.184;2022-08-19T04:17:24;15.40;99.90
53053;DHT22;38934;52.690;6.184;2022-08-19T04:19:49;15.30;99.90
53053;DHT22;38934;52.690;6.184;2022-08-19T04:22:15;15.30;99.90
53053;DHT22;38934;52.690;6.184;2022-08-19T04:24:40;15.30;99.90
53053;DHT22;38934;52.690;6.184;2022-08-19T04:27:06;15.30;99.90
53053;DHT22;38934;52.690;6.184;2022-08-19T04:29:32;15.30;99.90
53053;DHT22;38934;52.690;6.184;2022-08-19T04:31:59;15.40;99.90
53053;DHT22;38934;52.690;6.184;2022-08-19T04:34:26;15.30;99.90
53053;DHT22;38934;52.690;6.184;2022-08-19T04:36:54;15.30;99.90
53053;DHT22;38934;52.690;6.184;2022-08-19T04:39:23;15.30;99.90
53053;DHT22;38934;52.690;6.184;2022-08-19T04:42:09;15.30;99.90
53053;DHT22;38934;52.690;6.184;2022-08-19T04:44:53;15.30;99.90
53053;DHT22;38934;52.690;6.184;2022-08-19T04:47:19;15.30;99.90
53053;DHT22;38934;52.690;6.184;2022-08-19T04:49:45;15.40;99.90
53053;DHT22;38934;52.690;6.184;2022-08-19T04:52:10;15.20;99.90
53053;DHT22;38934;52.690;6.184;2022-08-19T04:54:36;15.30;99.90
53053;DHT22;38934;52.690;6.184;2022-08-19T04:57:01;15.30;99.90
53053;DHT22;38934;52.690;6.184;2022-08-19T04:59:27;15.20;99.90
53053;DHT22;38934;52.690;6.184;2022-08-19T05:01:53;15.30;99.90
53053;DHT22;38934;52.690;6.184;2022-08-19T05:04:20;15.20;99.90
53053;DHT22;38934;52.690;6.184;2022-08-19T05:06:48;15.30;99.90
53053;DHT22;38934;52.690;6.184;2022-08-19T05:09:15;15.30;99.90
53053;DHT22;38934;52.690;6.184;2022-08-19T05:11:41;15.30;99.90
53053;DHT22;38934;52.690;6.184;2022-08-19T05:14:08;15.40;99.90
53053;DHT22;38934;52.690;6.184;2022-08-19T05:16:34;15.40;99.90
53053;DHT22;38934;52.690;6.184;2022-08-19T05:18:59;15.40;99.90
53053;DHT22;38934;52.690;6.184;2022-08-19T05:21:44;15.40;99.90
53053;DHT22;38934;52.690;6.184;2022-08-19T05:24:29;15.50;99.90
53053;DHT22;38934;52.690;6.184;2022-08-19T05:26:55;15.50;99.90
53053;DHT22;38934;52.690;6.184;2022-08-19T05:29:26;15.60;99.90
53053;DHT22;38934;52.690;6.184;2022-08-19T05:31:53;15.60;99.90
53053;DHT22;38934;52.690;6.184;2022-08-19T05:34:21;15.60;99.90
53053;DHT22;38934;52.690;6.184;2022-08-19T05:36:48;15.60;99.90
53053;DHT22;38934;52.690;6.184;2022-08-19T05:39:19;15.70;99.90
53053;DHT22;38934;52.690;6.184;2022-08-19T05:41:52;15.70;99.90
53053;DHT22;38934;52.690;6.184;2022-08-19T05:44:18;15.80;99.90
53053;DHT22;38934;52.690;6.184;2022-08-19T05:46:45;16.10;99.90
53053;DHT22;38934;52.690;6.184;2022-08-19T05:49:15;15.90;99.90
53053;DHT22;38934;52.690;6.184;2022-08-19T05:51:41;16.00;99.90
53053;DHT22;38934;52.690;6.184;2022-08-19T05:54:07;16.00;99.90
53053;DHT22;38934;52.690;6.184;2022-08-19T05:56:35;16.10;99.90
53053;DHT22;38934;52.690;6.184;2022-08-19T05:59:05;16.10;99.90
53053;DHT22;38934;52.690;6.184;2022-08-19T06:01:34;16.20;99.90
53053;DHT22;38934;52.690;6.184;2022-08-19T06:04:00;16.20;99.90
53053;DHT22;38934;52.690;6.184;2022-08-19T06:06:26;16.20;99.90
53053;DHT22;38934;52.690;6.184;2022-08-19T06:08:52;16.30;99.90
53053;DHT22;38934;52.690;6.184;2022-08-19T06:11:35;16.40;99.90
53053;DHT22;38934;52.690;6.184;2022-08-19T06:14:08;16.40;99.90
53053;DHT22;38934;52.690;6.184;2022-08-19T06:16:36;16.50;99.90
53053;DHT22;38934;52.690;6.184;2022-08-19T06:19:05;16.50;99.90
53053;DHT22;38934;52.690;6.184;2022-08-19T06:21:32;16.60;99.90
53053;DHT22;38934;52.690;6.184;2022-08-19T06:23:59;16.60;99.90
53053;DHT22;38934;52.690;6.184;2022-08-19T06:26:25;16.70;99.90
53053;DHT22;38934;52.690;6.184;2022-08-19T06:28:52;16.80;99.90
53053;DHT22;38934;52.690;6.184;2022-08-19T06:31:23;16.90;99.90
53053;DHT22;38934;52.690;6.184;2022-08-19T06:33:49;17.00;99.90
53053;DHT22;38934;52.690;6.184;2022-08-19T06:36:22;17.10;99.90
53053;DHT22;38934;52.690;6.184;2022-08-19T06:38:52;17.10;99.90
53053;DHT22;38934;52.690;6.184;2022-08-19T06:41:18;17.20;99.90
53053;DHT22;38934;52.690;6.184;2022-08-19T06:43:43;17.30;99.90
53053;DHT22;38934;52.690;6.184;2022-08-19T06:46:12;17.40;99.90
53053;DHT22;38934;52.690;6.184;2022-08-19T06:48:38;17.40;99.90
53053;DHT22;38934;52.690;6.184;2022-08-19T06:51:03;17.50;99.90
53053;DHT22;38934;52.690;6.184;2022-08-19T06:53:31;17.60;99.90
53053;DHT22;38934;52.690;6.184;2022-08-19T06:55:56;17.70;99.90
53053;DHT22;38934;52.690;6.184;2022-08-19T06:58:26;17.80;99.90
53053;DHT22;38934;52.690;6.184;2022-08-19T07:00:51;17.90;99.90
53053;DHT22;38934;52.690;6.184;2022-08-19T07:03:17;17.90;99.90
53053;DHT22;38934;52.690;6.184;2022-08-19T07:05:43;18.10;99.90
53053;DHT22;38934;52.690;6.184;2022-08-19T07:08:09;18.10;99.90
53053;DHT22;38934;52.690;6.184;2022-08-19T07:10:35;18.30;99.90
53053;DHT22;38934;52.690;6.184;2022-08-19T07:13:02;18.30;99.90
53053;DHT22;38934;52.690;6.184;2022-08-19T07:15:29;18.40;99.90
53053;DHT22;38934;52.690;6.184;2022-08-19T07:17:55;18.50;99.90
53053;DHT22;38934;52.690;6.184;2022-08-19T07:20:20;18.50;99.90
53053;DHT22;38934;52.690;6.184;2022-08-19T07:22:46;18.70;99.90
53053;DHT22;38934;52.690;6.184;2022-08-19T07:25:12;18.70;99.90
53053;DHT22;38934;52.690;6.184;2022-08-19T07:27:38;18.80;99.90
53053;DHT22;38934;52.690;6.184;2022-08-19T07:30:04;18.90;99.90
53053;DHT22;38934;52.690;6.184;2022-08-19T07:32:31;19.00;99.90
53053;DHT22;38934;52.690;6.184;2022-08-19T07:34:56;19.10;99.90
53053;DHT22;38934;52.690;6.184;2022-08-19T07:37:22;19.20;99.90
53053;DHT22;38934;52.690;6.184;2022-08-19T07:39:48;19.20;99.90
53053;DHT22;38934;52.690;6.184;2022-08-19T07:42:14;19.40;99.90
53053;DHT22;38934;52.690;6.184;2022-08-19T07:44:40;19.50;99.90
53053;DHT22;38934;52.690;6.184;2022-08-19T07:47:06;19.60;99.90
53053;DHT22;38934;52.690;6.184;2022-08-19T07:49:32;19.70;99.90
53053;DHT22;38934;52.690;6.184;2022-08-19T07:52:02;19.80;99.90
53053;DHT22;38934;52.690;6.184;2022-08-19T07:54:31;19.90;99.90
53053;DHT22;38934;52.690;6.184;2022-08-19T07:56:57;19.90;99.90
53053;DHT22;38934;52.690;6.184;2022-08-19T07:59:23;20.20;99.90
53053;DHT22;38934;52.690;6.184;2022-08-19T08:01:50;20.10;99.90
53053;DHT22;38934;52.690;6.184;2022-08-19T08:04:16;20.20;99.90
53053;DHT22;38934;52.690;6.184;2022-08-19T08:07:00;20.30;99.90
53053;DHT22;38934;52.690;6.184;2022-08-19T08:09:45;20.40;99.90
53053;DHT22;38934;52.690;6.184;2022-08-19T08:12:14;20.50;99.90
53053;DHT22;38934;52.690;6.184;2022-08-19T08:14:48;20.50;99.90
53053;DHT22;38934;52.690;6.184;2022-08-19T08:17:17;20.70;99.90
53053;DHT22;38934;52.690;6.184;2022-08-19T08:19:44;20.80;99.90
53053;DHT22;38934;52.690;6.184;2022-08-19T08:22:11;20.80;99.90
53053;DHT22;38934;52.690;6.184;2022-08-19T08:25:07;20.90;99.90
53053;DHT22;38934;52.690;6.184;2022-08-19T08:27:36;21.00;99.90
53053;DHT22;38934;52.690;6.184;2022-08-19T08:30:11;21.10;99.90
53053;DHT22;38934;52.690;6.184;2022-08-19T08:32:39;21.20;99.90
53053;DHT22;38934;52.690;6.184;2022-08-19T08:35:06;21.20;99.90
53053;DHT22;38934;52.690;6.184;2022-08-19T08:37:32;21.30;99.90
53053;DHT22;38934;52.690;6.184;2022-08-19T08:39:58;21.40;99.90
53053;DHT22;38934;52.690;6.184;2022-08-19T08:42:28;21.40;99.90
53053;DHT22;38934;52.690;6.184;2022-08-19T08:44:58;21.60;99.90
53053;DHT22;38934;52.690;6.184;2022-08-19T08:47:25;21.60;99.90
53053;DHT22;38934;52.690;6.184;2022-08-19T08:50:01;21.70;99.90
53053;DHT22;38934;52.690;6.184;2022-08-19T08:52:37;21.80;99.90
53053;DHT22;38934;52.690;6.184;2022-08-19T08:55:11;21.80;99.90
53053;DHT22;38934;52.690;6.184;2022-08-19T09:00:24;21.90;99.90
53053;DHT22;38934;52.690;6.184;2022-08-19T09:02:53;22.10;99.90
53053;DHT22;38934;52.690;6.184;2022-08-19T09:05:20;22.10;99.90
53053;DHT22;38934;52.690;6.184;2022-08-19T09:10:50;22.30;99.90
53053;DHT22;38934;52.690;6.184;2022-08-19T09:13:42;22.40;99.90
53053;DHT22;38934;52.690;6.184;2022-08-19T09:16:14;22.40;99.90
53053;DHT22;38934;52.690;6.184;2022-08-19T09:18:49;22.50;99.90
53053;DHT22;38934;52.690;6.184;2022-08-19T09:21:19;22.60;99.90
53053;DHT22;38934;52.690;6.184;2022-08-19T09:23:45;22.70;99.90
53053;DHT22;38934;52.690;6.184;2022-08-19T09:26:13;22.70;99.90
53053;DHT22;38934;52.690;6.184;2022-08-19T09:28:41;22.80;99.90
53053;DHT22;38934;52.690;6.184;2022-08-19T09:31:14;22.90;99.90
53053;DHT22;38934;52.690;6.184;2022-08-19T09:33:40;22.90;99.90
53053;DHT22;38934;52.690;6.184;2022-08-19T09:36:12;23.00;99.90
53053;DHT22;38934;52.690;6.184;2022-08-19T09:38:39;23.10;99.90
53053;DHT22;38934;52.690;6.184;2022-08-19T09:41:12;23.10;99.90
53053;DHT22;38934;52.690;6.184;2022-08-19T09:43:39;23.30;99.90
53053;DHT22;38934;52.690;6.184;2022-08-19T09:46:07;23.40;99.90
53053;DHT22;38934;52.690;6.184;2022-08-19T09:48:35;23.40;99.90
53053;DHT22;38934;52.690;6.184;2022-08-19T09:51:07;23.60;99.90
53053;DHT22;38934;52.690;6.184;2022-08-19T09:53:34;24.20;99.90
53053;DHT22;38934;52.690;6.184;2022-08-19T09:56:00;24.60;99.90
53053;DHT22;38934;52.690;6.184;2022-08-19T09:58:26;24.50;99.90
53053;DHT22;38934;52.690;6.184;2022-08-19T10:00:57;24.40;99.90
53053;DHT22;38934;52.690;6.184;2022-08-19T10:03:24;24.20;99.90
53053;DHT22;38934;52.690;6.184;2022-08-19T10:05:50;24.10;99.90
53053;DHT22;38934;52.690;6.184;2022-08-19T10:08:21;23.90;99.90
53053;DHT22;38934;52.690;6.184;2022-08-19T10:10:48;23.90;99.90
53053;DHT22;38934;52.690;6.184;2022-08-19T10:13:16;23.90;99.90
53053;DHT22;38934;52.690;6.184;2022-08-19T10:15:42;23.90;99.90
53053;DHT22;38934;52.690;6.184;2022-08-19T10:18:08;23.80;99.90
53053;DHT22;38934;52.690;6.184;2022-08-19T10:20:34;23.90;99.90
53053;DHT22;38934;52.690;6.184;2022-08-19T10:23:02;23.90;99.90
53053;DHT22;38934;52.690;6.184;2022-08-19T10:25:28;23.90;99.90
53053;DHT22;38934;52.690;6.184;2022-08-19T10:27:57;24.10;99.90
53053;DHT22;38934;52.690;6.184;2022-08-19T10:30:22;24.40;99.90
53053;DHT22;38934;52.690;6.184;2022-08-19T10:32:48;24.50;99.90
53053;DHT22;38934;52.690;6.184;2022-08-19T10:35:14;24.70;99.90
53053;DHT22;38934;52.690;6.184;2022-08-19T10:37:40;24.90;99.90
53053;DHT22;38934;52.690;6.184;2022-08-19T10:40:07;25.00;99.90
53053;DHT22;38934;52.690;6.184;2022-08-19T10:42:34;25.20;99.90
53053;DHT22;38934;52.690;6.184;2022-08-19T10:45:00;25.30;99.90
53053;DHT22;38934;52.690;6.184;2022-08-19T10:47:26;25.40;99.90
53053;DHT22;38934;52.690;6.184;2022-08-19T10:49:53;25.40;99.90
53053;DHT22;38934;52.690;6.184;2022-08-19T10:52:44;25.50;99.90
53053;DHT22;38934;52.690;6.184;2022-08-19T10:55:10;25.50;99.90
53053;DHT22;38934;52.690;6.184;2022-08-19T10:57:55;25.50;99.90
53053;DHT22;38934;52.690;6.184;2022-08-19T11:00:21;25.60;99.90
53053;DHT22;38934;52.690;6.184;2022-08-19T11:02:47;25.70;99.90
53053;DHT22;38934;52.690;6.184;2022-08-19T11:05:14;25.80;99.90
53053;DHT22;38934;52.690;6.184;2022-08-19T11:07:40;25.70;99.90
53053;DHT22;38934;52.690;6.184;2022-08-19T11:10:09;25.70;99.90
53053;DHT22;38934;52.690;6.184;2022-08-19T11:12:37;25.70;99.90
53053;DHT22;38934;52.690;6.184;2022-08-19T11:15:06;25.70;99.90
53053;DHT22;38934;52.690;6.184;2022-08-19T11:17:33;25.80;99.90
53053;DHT22;38934;52.690;6.184;2022-08-19T11:19:59;25.90;99.90
53053;DHT22;38934;52.690;6.184;2022-08-19T11:22:28;25.90;99.90
53053;DHT22;38934;52.690;6.184;2022-08-19T11:24:53;25.90;99.90
53053;DHT22;38934;52.690;6.184;2022-08-19T11:27:21;25.80;99.90
53053;DHT22;38934;52.690;6.184;2022-08-19T11:29:47;25.70;99.90
53053;DHT22;38934;52.690;6.184;2022-08-19T11:32:12;25.70;99.90
53053;DHT22;38934;52.690;6.184;2022-08-19T11:34:39;25.80;99.90
53053;DHT22;38934;52.690;6.184;2022-08-19T11:37:05;25.90;99.90
53053;DHT22;38934;52.690;6.184;2022-08-19T11:39:33;26.00;99.90
53053;DHT22;38934;52.690;6.184;2022-08-19T11:41:59;26.10;99.90
53053;DHT22;38934;52.690;6.184;2022-08-19T11:44:25;26.20;99.90
53053;DHT22;38934;52.690;6.184;2022-08-19T11:46:51;26.40;99.90
53053;DHT22;38934;52.690;6.184;2022-08-19T11:49:19;26.30;99.90
53053;DHT22;38934;52.690;6.184;2022-08-19T11:51:45;26.30;99.90
53053;DHT22;38934;52.690;6.184;2022-08-19T11:54:13;26.40;99.90
53053;DHT22;38934;52.690;6.184;2022-08-19T11:56:39;26.40;99.90
53053;DHT22;38934;52.690;6.184;2022-08-19T11:59:05;26.40;99.90
53053;DHT22;38934;52.690;6.184;2022-08-19T12:01:31;26.50;99.90
53053;DHT22;38934;52.690;6.184;2022-08-19T12:03:57;26.30;99.90
53053;DHT22;38934;52.690;6.184;2022-08-19T12:06:28;26.30;99.90
53053;DHT22;38934;52.690;6.184;2022-08-19T12:08:56;26.10;99.90
53053;DHT22;38934;52.690;6.184;2022-08-19T12:11:22;26.20;99.90
53053;DHT22;38934;52.690;6.184;2022-08-19T12:13:48;25.80;99.90
53053;DHT22;38934;52.690;6.184;2022-08-19T12:16:18;25.80;99.90
53053;DHT22;38934;52.690;6.184;2022-08-19T12:18:45;25.90;99.90
53053;DHT22;38934;52.690;6.184;2022-08-19T12:21:14;26.10;99.90
53053;DHT22;38934;52.690;6.184;2022-08-19T12:23:42;26.20;99.90
53053;DHT22;38934;52.690;6.184;2022-08-19T12:26:09;26.30;99.90
53053;DHT22;38934;52.690;6.184;2022-08-19T12:28:35;26.70;99.90
53053;DHT22;38934;52.690;6.184;2022-08-19T12:31:01;26.70;99.90
53053;DHT22;38934;52.690;6.184;2022-08-19T12:33:27;26.80;99.90
53053;DHT22;38934;52.690;6.184;2022-08-19T12:35:53;26.90;99.90
53053;DHT22;38934;52.690;6.184;2022-08-19T12:38:19;26.90;99.90
53053;DHT22;38934;52.690;6.184;2022-08-19T12:40:48;26.90;99.90
53053;DHT22;38934;52.690;6.184;2022-08-19T12:43:15;26.70;99.90
53053;DHT22;38934;52.690;6.184;2022-08-19T12:45:45;26.90;99.90
53053;DHT22;38934;52.690;6.184;2022-08-19T12:48:11;26.90;99.90
53053;DHT22;38934;52.690;6.184;2022-08-19T12:50:40;27.00;99.90
53053;DHT22;38934;52.690;6.184;2022-08-19T12:53:06;26.90;99.90
53053;DHT22;38934;52.690;6.184;2022-08-19T12:55:31;27.00;99.90
53053;DHT22;38934;52.690;6.184;2022-08-19T12:57:57;27.10;99.90
53053;DHT22;38934;52.690;6.184;2022-08-19T13:00:23;27.20;99.90
53053;DHT22;38934;52.690;6.184;2022-08-19T13:02:52;27.20;99.90
53053;DHT22;38934;52.690;6.184;2022-08-19T13:05:21;27.30;99.90
53053;DHT22;38934;52.690;6.184;2022-08-19T13:07:48;27.30;99.90
53053;DHT22;38934;52.690;6.184;2022-08-19T13:10:17;27.10;99.90
53053;DHT22;38934;52.690;6.184;2022-08-19T13:12:45;27.10;99.90
53053;DHT22;38934;52.690;6.184;2022-08-19T13:15:11;27.00;99.90
53053;DHT22;38934;52.690;6.184;2022-08-19T13:17:38;26.80;99.90
53053;DHT22;38934;52.690;6.184;2022-08-19T13:20:05;26.80;99.90
53053;DHT22;38934;52.690;6.184;2022-08-19T13:22:33;26.90;99.90
53053;DHT22;38934;52.690;6.184;2022-08-19T13:25:01;27.00;99.90
53053;DHT22;38934;52.690;6.184;2022-08-19T13:27:26;27.00;99.90
53053;DHT22;38934;52.690;6.184;2022-08-19T13:29:52;27.00;99.90
53053;DHT22;38934;52.690;6.184;2022-08-19T13:32:36;27.30;99.90
53053;DHT22;38934;52.690;6.184;2022-08-19T13:35:21;27.40;99.90
53053;DHT22;38934;52.690;6.184;2022-08-19T13:37:46;27.20;99.90
53053;DHT22;38934;52.690;6.184;2022-08-19T13:40:20;27.00;99.90
53053;DHT22;38934;52.690;6.184;2022-08-19T13:42:50;26.70;99.90
53053;DHT22;38934;52.690;6.184;2022-08-19T13:45:19;26.60;99.90
53053;DHT22;38934;52.690;6.184;2022-08-19T13:47:46;26.70;99.90
53053;DHT22;38934;52.690;6.184;2022-08-19T13:50:15;26.90;99.90
53053;DHT22;38934;52.690;6.184;2022-08-19T13:52:42;26.90;99.90
53053;DHT22;38934;52.690;6.184;2022-08-19T13:55:09;27.00;99.90
53053;DHT22;38934;52.690;6.184;2022-08-19T13:57:35;27.00;99.90
53053;DHT22;38934;52.690;6.184;2022-08-19T14:00:03;26.80;99.90
53053;DHT22;38934;52.690;6.184;2022-08-19T14:02:29;26.50;99.90
53053;DHT22;38934;52.690;6.184;2022-08-19T14:04:54;26.30;99.90
53053;DHT22;38934;52.690;6.184;2022-08-19T14:07:20;26.30;99.90
53053;DHT22;38934;52.690;6.184;2022-08-19T14:09:49;26.00;99.90
53053;DHT22;38934;52.690;6.184;2022-08-19T14:12:19;25.80;99.90
53053;DHT22;38934;52.690;6.184;2022-08-19T14:14:44;25.90;99.90
53053;DHT22;38934;52.690;6.184;2022-08-19T14:17:10;25.80;99.90
53053;DHT22;38934;52.690;6.184;2022-08-19T14:19:35;25.80;99.90
53053;DHT22;38934;52.690;6.184;2022-08-19T14:22:01;25.70;99.90
53053;DHT22;38934;52.690;6.184;2022-08-19T14:24:27;25.70;99.90
53053;DHT22;38934;52.690;6.184;2022-08-19T14:26:53;25.60;99.90
53053;DHT22;38934;52.690;6.184;2022-08-19T14:29:18;25.70;99.90
53053;DHT22;38934;52.690;6.184;2022-08-19T14:31:44;25.70;99.90
53053;DHT22;38934;52.690;6.184;2022-08-19T14:34:10;25.60;99.90
53053;DHT22;38934;52.690;6.184;2022-08-19T14:36:36;25.60;99.90
53053;DHT22;38934;52.690;6.184;2022-08-19T14:39:03;25.50;99.90
53053;DHT22;38934;52.690;6.184;2022-08-19T14:41:28;25.50;99.90
53053;DHT22;38934;52.690;6.184;2022-08-19T14:43:56;25.50;99.90
53053;DHT22;38934;52.690;6.184;2022-08-19T14:46:24;25.50;99.90
53053;DHT22;38934;52.690;6.184;2022-08-19T14:48:51;25.50;99.90
53053;DHT22;38934;52.690;6.184;2022-08-19T14:51:19;25.50;99.90
53053;DHT22;38934;52.690;6.184;2022-08-19T14:53:45;25.50;99.90
53053;DHT22;38934;52.690;6.184;2022-08-19T14:56:16;25.50;99.90
53053;DHT22;38934;52.690;6.184;2022-08-19T14:58:43;25.50;99.90
53053;DHT22;38934;52.690;6.184;2022-08-19T15:01:10;25.50;99.90
53053;DHT22;38934;52.690;6.184;2022-08-19T15:03:36;25.50;99.90
53053;DHT22;38934;52.690;6.184;2022-08-19T15:06:03;25.50;99.90
53053;DHT22;38934;52.690;6.184;2022-08-19T15:08:30;25.50;99.90
53053;DHT22;38934;52.690;6.184;2022-08-19T15:10:57;25.50;99.90
53053;DHT22;38934;52.690;6.184;2022-08-19T15:13:24;25.40;99.90
53053;DHT22;38934;52.690;6.184;2022-08-19T15:15:51;25.40;99.90
53053;DHT22;38934;52.690;6.184;2022-08-19T15:18:17;25.30;99.90
53053;DHT22;38934;52.690;6.184;2022-08-19T15:20:46;25.30;99.90
53053;DHT22;38934;52.690;6.184;2022-08-19T15:23:13;25.20;99.90
53053;DHT22;38934;52.690;6.184;2022-08-19T15:25:39;25.20;99.90
53053;DHT22;38934;52.690;6.184;2022-08-19T15:28:06;25.10;99.90
53053;DHT22;38934;52.690;6.184;2022-08-19T15:30:32;25.10;99.90
53053;DHT22;38934;52.690;6.184;2022-08-19T15:32:59;25.00;99.90
53053;DHT22;38934;52.690;6.184;2022-08-19T15:35:25;25.00;99.90
53053;DHT22;38934;52.690;6.184;2022-08-19T15:37:52;25.00;99.90
53053;DHT22;38934;52.690;6.184;2022-08-19T15:40:19;25.10;99.90